createdAt,value
2022-08-02T00:00:22.569Z,1.50
2022-08-02T00:02:51.730Z,1.43
2022-08-02T00:05:19.585Z,1.50
2022-08-02T00:07:47.451Z,1.63
2022-08-02T00:10:15.307Z,1.50
2022-08-02T00:12:43.123Z,1.30
2022-08-02T00:15:16.039Z,1.83
2022-08-02T00:17:44.426Z,1.40
2022-08-02T00:20:14.950Z,1.60
2022-08-02T00:22:42.824Z,1.50
2022-08-02T00:25:11.262Z,1.50
2022-08-02T00:27:39.094Z,1.70
2022-08-02T00:30:07.900Z,1.57
2022-08-02T00:32:35.702Z,1.70
2022-08-02T00:35:03.529Z,1.40
2022-08-02T00:37:32.758Z,1.87
2022-08-02T00:40:02.177Z,1.90
2022-08-02T00:42:30.081Z,1.50
2022-08-02T00:44:58.834Z,1.63
2022-08-02T00:47:26.656Z,1.30
2022-08-02T00:49:54.476Z,1.33
2022-08-02T00:52:23.603Z,1.47
2022-08-02T00:54:52.792Z,1.33
2022-08-02T00:57:20.729Z,1.70
2022-08-02T00:59:49.030Z,1.63
2022-08-02T01:02:17.229Z,1.33
2022-08-02T01:04:45.445Z,1.43
2022-08-02T01:07:14.411Z,1.60
2022-08-02T01:09:43.009Z,1.60
2022-08-02T01:12:13.392Z,1.53
2022-08-02T01:14:42.759Z,1.60
2022-08-02T01:17:18.559Z,1.83
2022-08-02T01:19:55.327Z,1.33
2022-08-02T01:23:03.562Z,1.80
2022-08-02T01:25:51.195Z,1.80
2022-08-02T01:28:30.904Z,1.83
2022-08-02T01:31:03.612Z,1.73
2022-08-02T01:33:39.015Z,1.60
2022-08-02T01:36:11.690Z,1.87
2022-08-02T01:38:44.429Z,1.80
2022-08-02T01:41:17.073Z,2.10
2022-08-02T01:43:47.572Z,1.60
2022-08-02T01:46:17.559Z,2.03
2022-08-02T01:48:48.322Z,3.23
2022-08-02T01:51:19.389Z,1.50
2022-08-02T01:53:50.905Z,2.00
2022-08-02T01:56:20.552Z,1.70
2022-08-02T01:58:50.828Z,1.50
2022-08-02T02:01:20.291Z,1.40
2022-08-02T02:03:50.271Z,1.30
2022-08-02T02:06:20.643Z,1.50
2022-08-02T02:08:51.026Z,1.67
2022-08-02T02:12:11.896Z,1.73
2022-08-02T02:14:10.576Z,1.60
2022-08-02T02:16:41.774Z,1.47
2022-08-02T02:19:11.526Z,1.50
2022-08-02T02:21:39.499Z,1.77
2022-08-02T02:24:11.632Z,1.33
2022-08-02T02:26:42.923Z,1.47
2022-08-02T02:29:22.970Z,1.80
2022-08-02T02:31:54.451Z,1.40
2022-08-02T02:34:28.798Z,1.40
2022-08-02T02:36:58.999Z,1.47
2022-08-02T02:39:29.789Z,1.70
2022-08-02T02:42:03.095Z,2.03
2022-08-02T02:44:32.995Z,1.37
2022-08-02T02:47:02.322Z,1.70
2022-08-02T02:49:33.107Z,1.63
2022-08-02T02:52:01.513Z,1.40
2022-08-02T02:54:34.496Z,1.40
2022-08-02T02:57:05.114Z,1.80
2022-08-02T02:59:35.038Z,1.80
2022-08-02T03:02:03.485Z,1.47
2022-08-02T03:04:55.227Z,1.40
2022-08-02T03:07:20.575Z,1.63
2022-08-02T03:09:54.339Z,1.70
2022-08-02T03:12:28.773Z,1.67
2022-08-02T03:15:00.834Z,1.77
2022-08-02T03:17:39.710Z,1.97
2022-08-02T03:20:11.056Z,2.03
2022-08-02T03:22:39.023Z,1.90
2022-08-02T03:25:08.066Z,2.10
2022-08-02T03:27:36.002Z,1.87
2022-08-02T03:30:05.922Z,2.13
2022-08-02T03:32:34.466Z,1.97
2022-08-02T03:35:02.932Z,1.90
2022-08-02T03:37:32.528Z,1.80
2022-08-02T03:40:00.789Z,1.83
2022-08-02T03:42:29.796Z,1.60
2022-08-02T03:45:00.440Z,2.10
2022-08-02T03:47:31.859Z,1.77
2022-08-02T03:50:00.871Z,2.10
2022-08-02T03:52:30.067Z,2.00
2022-08-02T03:54:59.110Z,1.77
2022-08-02T03:57:27.277Z,1.37
2022-08-02T03:59:55.108Z,1.90
2022-08-02T04:02:22.922Z,1.70
2022-08-02T04:04:52.099Z,1.53
2022-08-02T04:08:33.920Z,1.47
2022-08-02T04:10:08.285Z,1.67
2022-08-02T04:12:36.115Z,1.70
2022-08-02T04:15:05.593Z,1.70
2022-08-02T04:17:35.821Z,2.07
2022-08-02T04:20:09.641Z,2.00
2022-08-02T04:22:45.017Z,1.70
2022-08-02T04:29:01.407Z,2.10
2022-08-02T04:31:29.898Z,1.83
2022-08-02T04:33:58.309Z,1.80
2022-08-02T04:36:30.828Z,1.70
2022-08-02T04:38:59.893Z,1.90
2022-08-02T04:41:44.055Z,1.83
2022-08-02T04:44:12.458Z,1.70
2022-08-02T04:46:40.733Z,1.50
2022-08-02T04:49:09.090Z,1.40
2022-08-02T04:51:39.005Z,1.53
2022-08-02T04:54:09.083Z,1.20
2022-08-02T04:56:37.866Z,1.60
2022-08-02T04:59:05.963Z,1.60
2022-08-02T05:01:34.887Z,1.50
2022-08-02T05:04:02.757Z,1.70
2022-08-02T05:06:30.608Z,1.80
2022-08-02T05:08:59.777Z,2.03
2022-08-02T05:11:34.662Z,1.40
2022-08-02T05:14:05.449Z,1.63
2022-08-02T05:16:33.333Z,1.63
2022-08-02T05:19:02.307Z,2.00
2022-08-02T05:21:31.286Z,2.40
2022-08-02T05:24:00.485Z,1.90
2022-08-02T05:26:28.279Z,1.73
2022-08-02T05:28:56.041Z,1.83
2022-08-02T05:31:23.836Z,1.90
2022-08-02T05:33:51.685Z,1.70
2022-08-02T05:36:19.451Z,1.83
2022-08-02T05:38:50.770Z,1.57
2022-08-02T05:41:20.640Z,1.60
2022-08-02T05:43:48.838Z,1.57
2022-08-02T05:46:16.645Z,1.77
2022-08-02T05:48:44.926Z,1.73
2022-08-02T05:51:14.379Z,2.40
2022-08-02T05:53:47.679Z,1.80
2022-08-02T05:56:24.982Z,1.73
2022-08-02T05:58:58.017Z,3.70
2022-08-02T06:01:33.424Z,1.90
2022-08-02T06:04:02.958Z,1.70
2022-08-02T06:06:32.669Z,1.77
2022-08-02T06:09:03.208Z,1.80
2022-08-02T06:11:36.929Z,1.50
2022-08-02T06:14:05.876Z,2.07
2022-08-02T06:16:41.224Z,2.07
2022-08-02T06:19:12.453Z,2.03
2022-08-02T06:22:41.685Z,1.97
2022-08-02T06:24:30.954Z,2.57
2022-08-02T06:27:01.597Z,2.33
2022-08-02T06:29:35.653Z,2.30
2022-08-02T06:32:08.713Z,2.03
2022-08-02T06:34:38.047Z,2.10
2022-08-02T06:37:14.750Z,1.70
2022-08-02T06:39:46.652Z,1.77
2022-08-02T06:42:27.024Z,1.93
2022-08-02T06:44:57.653Z,2.10
2022-08-02T06:47:26.246Z,2.00
2022-08-02T06:49:54.983Z,1.90
2022-08-02T06:52:28.186Z,1.65
2022-08-02T06:54:57.610Z,1.60
2022-08-02T06:57:26.812Z,1.80
2022-08-02T06:59:54.632Z,1.88
2022-08-02T07:02:22.728Z,1.80
2022-08-02T07:04:50.608Z,1.70
2022-08-02T07:07:18.439Z,1.83
2022-08-02T07:10:00.442Z,2.07
2022-08-02T07:12:32.167Z,2.20
2022-08-02T07:15:00.427Z,2.03
2022-08-02T07:17:28.449Z,2.10
2022-08-02T07:19:56.417Z,1.97
2022-08-02T07:22:24.476Z,1.70
2022-08-02T07:24:52.796Z,1.50
2022-08-02T07:27:31.159Z,1.60
2022-08-02T07:30:00.914Z,1.90
2022-08-02T07:32:31.808Z,1.50
2022-08-02T07:35:06.495Z,1.52
2022-08-02T07:37:54.766Z,1.88
2022-08-02T07:40:25.866Z,1.52
2022-08-02T07:43:02.366Z,1.70
2022-08-02T07:45:35.711Z,1.70
2022-08-02T07:48:03.972Z,1.15
2022-08-02T07:50:31.824Z,2.00
2022-08-02T07:52:59.974Z,1.55
2022-08-02T07:55:35.276Z,1.90
2022-08-02T07:58:11.259Z,1.70
2022-08-02T08:00:43.595Z,1.75
2022-08-02T08:03:11.442Z,1.70
2022-08-02T08:05:39.226Z,1.83
2022-08-02T08:08:07.115Z,1.77
2022-08-02T08:10:34.963Z,1.40
2022-08-02T08:13:02.778Z,2.00
2022-08-02T08:15:30.576Z,1.70
2022-08-02T08:17:59.759Z,1.60
2022-08-02T08:20:27.679Z,2.00
2022-08-02T08:22:55.514Z,2.15
2022-08-02T08:25:23.423Z,2.05
2022-08-02T08:27:55.023Z,1.98
2022-08-02T08:30:23.254Z,2.30
2022-08-02T08:32:51.271Z,1.70
2022-08-02T08:35:20.582Z,2.00
2022-08-02T08:37:48.415Z,2.30
2022-08-02T08:40:19.387Z,2.08
2022-08-02T08:42:47.550Z,1.92
2022-08-02T08:45:15.384Z,1.58
2022-08-02T08:47:43.661Z,1.95
2022-08-02T08:50:18.076Z,1.67
2022-08-02T08:52:58.201Z,1.70
2022-08-02T08:55:28.628Z,1.50
2022-08-02T08:57:58.083Z,1.30
2022-08-02T09:00:26.029Z,1.70
2022-08-02T09:02:53.850Z,1.85
2022-08-02T09:05:21.628Z,1.80
2022-08-02T09:07:50.579Z,1.85
2022-08-02T09:10:41.029Z,1.65
2022-08-02T09:13:38.049Z,1.60
2022-08-02T09:16:12.397Z,1.70
2022-08-02T09:18:44.455Z,1.90
2022-08-02T09:21:12.944Z,1.88
2022-08-02T09:23:42.231Z,1.52
2022-08-02T09:26:13.499Z,1.77
2022-08-02T09:28:43.006Z,1.52
2022-08-02T09:31:12.779Z,1.77
2022-08-02T09:33:42.325Z,2.05
2022-08-02T09:36:12.259Z,1.90
2022-08-02T09:38:41.710Z,1.80
2022-08-02T09:41:22.849Z,1.90
2022-08-02T09:44:05.589Z,1.80
2022-08-02T09:46:38.312Z,1.75
2022-08-02T09:49:09.280Z,2.20
2022-08-02T09:51:41.807Z,2.05
2022-08-02T09:54:12.764Z,1.63
2022-08-02T09:56:45.271Z,1.98
2022-08-02T09:59:14.128Z,2.10
2022-08-02T10:01:44.323Z,2.20
2022-08-02T10:04:22.598Z,2.13
2022-08-02T10:06:53.822Z,1.92
2022-08-02T10:09:22.161Z,1.95
2022-08-02T10:11:53.001Z,1.90
2022-08-02T10:14:23.475Z,2.10
2022-08-02T10:16:53.188Z,1.85
2022-08-02T10:20:01.353Z,2.13
2022-08-02T10:22:12.668Z,2.08
2022-08-02T10:24:47.917Z,2.00
2022-08-02T10:27:19.759Z,1.80
2022-08-02T10:29:54.299Z,1.80
2022-08-02T10:32:30.930Z,2.08
2022-08-02T10:35:18.282Z,2.28
2022-08-02T10:37:50.890Z,1.92
2022-08-02T10:40:26.310Z,1.85
2022-08-02T10:43:00.705Z,2.13
2022-08-02T10:45:29.814Z,2.00
2022-08-02T10:48:03.455Z,1.83
2022-08-02T10:50:55.532Z,1.88
2022-08-02T10:53:25.031Z,1.70
2022-08-02T10:55:52.952Z,1.90
2022-08-02T10:58:26.230Z,1.90
2022-08-02T11:00:58.436Z,1.95
2022-08-02T11:03:41.112Z,2.10
2022-08-02T11:06:25.198Z,2.03
2022-08-02T11:09:32.002Z,2.17
2022-08-02T11:12:03.328Z,2.08
2022-08-02T11:14:35.457Z,1.90
2022-08-02T11:17:11.279Z,1.88
2022-08-02T11:20:15.472Z,1.92
2022-08-02T11:22:45.261Z,2.00
2022-08-02T11:25:54.684Z,2.03
2022-08-02T11:28:24.781Z,1.63
2022-08-02T11:30:59.608Z,2.13
2022-08-02T11:33:34.554Z,1.73
2022-08-02T11:36:04.738Z,2.15
2022-08-02T11:38:32.665Z,1.98
2022-08-02T11:41:03.774Z,1.90
2022-08-02T11:43:38.170Z,1.85
2022-08-02T11:46:14.398Z,1.90
2022-08-02T11:48:44.404Z,1.70
2022-08-02T11:51:14.383Z,1.80
2022-08-02T11:53:43.747Z,1.80
2022-08-02T11:56:12.047Z,2.00
2022-08-02T11:58:41.845Z,1.95
2022-08-02T12:01:11.178Z,2.03
2022-08-02T12:03:41.212Z,2.10
2022-08-02T12:06:16.181Z,1.70
2022-08-02T12:08:54.294Z,1.75
2022-08-02T12:11:22.942Z,1.95
2022-08-02T12:13:56.425Z,2.15
2022-08-02T12:16:51.069Z,1.80
2022-08-02T12:19:23.386Z,2.35
2022-08-02T12:22:08.397Z,1.70
2022-08-02T12:24:36.910Z,1.80
2022-08-02T12:27:04.878Z,1.92
2022-08-02T12:29:58.108Z,2.10
2022-08-02T12:32:26.360Z,1.85
2022-08-02T12:35:07.738Z,1.80
2022-08-02T12:37:36.545Z,1.65
2022-08-02T12:40:25.236Z,2.85
2022-08-02T12:42:56.448Z,1.92
2022-08-02T12:45:24.893Z,2.00
2022-08-02T12:47:55.773Z,1.92
2022-08-02T12:50:27.302Z,1.90
2022-08-02T12:53:05.625Z,1.85
2022-08-02T12:56:02.084Z,1.48
2022-08-02T12:58:23.887Z,1.70
2022-08-02T13:00:54.896Z,1.75
2022-08-02T13:04:09.898Z,1.90
2022-08-02T13:06:39.535Z,1.80
2022-08-02T13:09:00.542Z,1.98
2022-08-02T13:11:29.238Z,2.08
2022-08-02T13:13:57.133Z,1.60
2022-08-02T13:16:30.840Z,2.00
2022-08-02T13:19:01.013Z,1.85
2022-08-02T13:21:41.486Z,1.60
2022-08-02T13:24:38.028Z,1.65
2022-08-02T13:27:08.514Z,1.48
2022-08-02T13:29:36.959Z,1.73
2022-08-02T13:32:04.901Z,1.75
2022-08-02T13:34:34.112Z,1.77
2022-08-02T13:37:01.983Z,1.40
2022-08-02T13:39:29.825Z,1.35
2022-08-02T13:41:57.667Z,1.80
2022-08-02T13:44:25.486Z,1.80
2022-08-02T13:46:53.351Z,1.95
2022-08-02T13:49:50.199Z,1.83
2022-08-02T13:52:11.719Z,1.48
2022-08-02T13:54:40.027Z,1.80
2022-08-02T13:57:07.986Z,1.50
2022-08-02T13:59:57.227Z,1.70
2022-08-02T14:02:24.014Z,1.70
2022-08-02T14:04:51.864Z,1.65
2022-08-02T14:07:21.478Z,1.60
2022-08-02T14:09:49.386Z,1.90
2022-08-02T14:12:17.549Z,1.70
2022-08-02T14:14:45.522Z,1.45
2022-08-02T14:17:14.119Z,1.58
2022-08-02T14:19:42.103Z,1.80
2022-08-02T14:22:10.705Z,1.52
2022-08-02T14:24:42.200Z,1.85
2022-08-02T14:27:10.143Z,1.90
2022-08-02T14:29:38.085Z,1.50
2022-08-02T14:32:06.651Z,1.77
2022-08-02T14:34:34.586Z,2.13
2022-08-02T14:37:02.423Z,1.20
2022-08-02T14:39:43.075Z,1.70
2022-08-02T14:42:19.597Z,1.80
2022-08-02T14:44:47.497Z,1.80
2022-08-02T14:47:15.441Z,1.80
2022-08-02T14:49:47.080Z,1.58
2022-08-02T14:52:17.551Z,1.52
2022-08-02T14:54:45.440Z,1.48
2022-08-02T14:57:15.494Z,1.80
2022-08-02T14:59:44.769Z,2.15
2022-08-02T15:02:13.796Z,1.60
2022-08-02T15:04:43.657Z,1.70
2022-08-02T15:07:12.491Z,1.40
2022-08-02T15:09:40.568Z,1.95
2022-08-02T15:12:09.606Z,1.80
2022-08-02T15:14:37.976Z,1.95
2022-08-02T15:17:07.998Z,1.58
2022-08-02T15:19:56.673Z,1.67
2022-08-02T15:22:24.190Z,1.52
2022-08-02T15:24:52.161Z,1.65
2022-08-02T15:27:19.965Z,1.80
2022-08-02T15:29:49.009Z,1.80
2022-08-02T15:32:19.606Z,1.73
2022-08-02T15:34:48.069Z,1.60
2022-08-02T15:37:15.943Z,1.52
2022-08-02T15:39:43.947Z,1.70
2022-08-02T15:42:12.319Z,1.40
2022-08-02T15:44:40.586Z,1.80
2022-08-02T15:47:08.810Z,1.40
2022-08-02T15:49:41.570Z,1.98
2022-08-02T15:52:10.968Z,1.38
2022-08-02T15:54:39.160Z,1.40
2022-08-02T15:57:07.364Z,1.20
2022-08-02T15:59:35.193Z,1.27
2022-08-02T16:02:03.245Z,1.77
2022-08-02T16:04:31.257Z,1.90
2022-08-02T16:07:01.560Z,1.45
2022-08-02T16:09:29.650Z,1.90
2022-08-02T16:11:57.519Z,1.80
2022-08-02T16:14:25.582Z,1.75
2022-08-02T16:16:53.404Z,1.80
2022-08-02T16:19:46.623Z,1.48
2022-08-02T16:22:11.179Z,1.50
2022-08-02T16:24:39.500Z,1.73
2022-08-02T16:27:08.958Z,1.50
2022-08-02T16:29:37.359Z,1.70
2022-08-02T16:32:06.191Z,1.52
2022-08-02T16:34:50.839Z,1.90
2022-08-02T16:37:23.142Z,1.98
2022-08-02T16:39:50.986Z,1.70
2022-08-02T16:42:25.574Z,1.90
2022-08-02T16:44:54.716Z,2.10
2022-08-02T16:50:11.327Z,1.90
2022-08-02T16:52:40.779Z,1.70
2022-08-02T16:55:11.542Z,2.00
2022-08-02T16:57:43.219Z,2.00
2022-08-02T17:00:15.633Z,1.85
2022-08-02T17:02:44.194Z,2.33
2022-08-02T17:05:15.405Z,2.05
2022-08-02T17:10:34.562Z,1.95
2022-08-02T17:13:11.454Z,3.35
2022-08-02T17:16:00.980Z,3.72
2022-08-02T17:18:27.907Z,2.50
2022-08-02T17:20:56.174Z,1.95
2022-08-02T17:24:04.194Z,2.38
2022-08-02T17:26:13.652Z,2.35
2022-08-02T17:29:03.735Z,2.22
2022-08-02T17:31:37.118Z,2.50
2022-08-02T17:34:05.266Z,2.40
2022-08-02T17:36:33.238Z,2.20
2022-08-02T17:39:04.915Z,2.33
2022-08-02T17:41:37.685Z,2.10
2022-08-02T17:44:08.494Z,2.00
2022-08-02T17:46:37.067Z,2.00
2022-08-02T17:49:25.240Z,2.30
2022-08-02T17:52:49.098Z,2.47
2022-08-02T17:54:43.786Z,2.65
2022-08-02T17:57:11.706Z,2.72
2022-08-02T17:59:42.725Z,2.58
2022-08-02T18:02:11.369Z,2.97
2022-08-02T18:04:39.345Z,2.60
2022-08-02T18:07:09.746Z,2.40
2022-08-02T18:09:43.678Z,2.45
2022-08-02T18:12:14.387Z,2.63
2022-08-02T18:14:49.193Z,2.72
2022-08-02T18:17:18.992Z,2.95
2022-08-02T18:19:57.217Z,2.80
2022-08-02T18:22:31.301Z,2.70
2022-08-02T18:24:59.628Z,2.70
2022-08-02T18:27:29.225Z,2.80
2022-08-02T18:30:00.413Z,2.65
2022-08-02T18:33:54.998Z,2.70
2022-08-02T18:35:20.523Z,2.38
2022-08-02T18:37:56.997Z,2.75
2022-08-02T18:40:29.483Z,3.10
2022-08-02T18:42:58.757Z,2.50
2022-08-02T18:46:04.682Z,2.60
2022-08-02T18:48:17.438Z,3.13
2022-08-02T18:50:46.877Z,2.72
2022-08-02T18:53:16.778Z,2.90
2022-08-02T18:56:04.848Z,2.90
2022-08-02T18:58:34.926Z,2.70
2022-08-02T19:01:05.115Z,2.72
2022-08-02T19:03:37.153Z,2.85
2022-08-02T19:06:05.503Z,2.70
2022-08-02T19:08:34.859Z,2.67
2022-08-02T19:11:03.005Z,2.60
2022-08-02T19:13:31.091Z,2.80
2022-08-02T19:16:00.310Z,2.70
2022-08-02T19:18:30.033Z,3.30
2022-08-02T19:21:05.310Z,2.53
2022-08-02T19:23:33.941Z,2.80
2022-08-02T19:26:02.262Z,2.38
2022-08-02T19:28:31.763Z,2.35
2022-08-02T19:31:02.610Z,2.78
2022-08-02T19:34:04.330Z,2.92
2022-08-02T19:36:19.099Z,3.08
2022-08-02T19:41:43.896Z,2.40
2022-08-02T19:44:24.134Z,2.97
2022-08-02T19:46:57.951Z,3.00
2022-08-02T19:49:40.474Z,3.05
2022-08-02T19:52:21.611Z,2.80
2022-08-02T19:54:55.705Z,2.78
2022-08-02T19:57:25.547Z,2.70
2022-08-02T19:59:53.916Z,2.67
2022-08-02T20:02:23.348Z,3.00
2022-08-02T20:04:52.862Z,3.05
2022-08-02T20:07:54.615Z,2.85
2022-08-02T20:10:10.802Z,3.10
2022-08-02T20:12:39.729Z,2.83
2022-08-02T20:15:14.848Z,2.67
2022-08-02T20:17:47.553Z,2.60
2022-08-02T20:20:17.521Z,2.50
2022-08-02T20:23:32.728Z,2.92
2022-08-02T20:25:54.285Z,2.97
2022-08-02T20:28:22.853Z,3.03
2022-08-02T20:30:50.862Z,2.65
2022-08-02T20:36:08.036Z,3.23
2022-08-02T20:38:38.695Z,3.03
2022-08-02T20:41:06.817Z,2.60
2022-08-02T20:43:35.706Z,2.87
2022-08-02T20:46:03.804Z,2.63
2022-08-02T20:48:33.026Z,2.67
2022-08-02T20:51:00.862Z,3.00
2022-08-02T20:53:54.652Z,3.20
2022-08-02T20:56:23.174Z,3.10
2022-08-02T20:58:51.895Z,2.77
2022-08-02T21:01:21.151Z,3.00
2022-08-02T21:03:53.620Z,2.73
2022-08-02T21:06:28.076Z,2.70
2022-08-02T21:08:56.470Z,2.50
2022-08-02T21:11:33.531Z,2.83
2022-08-02T21:14:06.545Z,2.90
2022-08-02T21:16:37.347Z,2.80
2022-08-02T21:19:09.791Z,2.67
2022-08-02T21:21:41.572Z,2.53
2022-08-02T21:24:12.301Z,3.10
2022-08-02T21:26:40.454Z,2.80
2022-08-02T21:29:09.859Z,3.00
2022-08-02T21:31:41.414Z,2.67
2022-08-02T21:34:26.644Z,2.87
2022-08-02T21:36:55.385Z,2.93
2022-08-02T21:39:49.971Z,2.70
2022-08-02T21:42:16.336Z,2.90
2022-08-02T21:44:50.899Z,2.87
2022-08-02T21:47:25.181Z,3.17
2022-08-02T21:50:09.370Z,3.50
2022-08-02T21:52:42.269Z,3.00
2022-08-02T21:55:21.332Z,3.60
2022-08-02T21:57:52.352Z,3.27
2022-08-02T22:00:28.453Z,2.80
2022-08-02T22:02:57.079Z,3.10
2022-08-02T22:05:28.227Z,2.90
2022-08-02T22:08:05.553Z,3.27
2022-08-02T22:10:53.714Z,2.87
2022-08-02T22:13:22.498Z,2.77
2022-08-02T22:15:50.901Z,3.20
2022-08-02T22:18:29.280Z,3.17
2022-08-02T22:20:59.136Z,3.20
2022-08-02T22:26:14.897Z,3.13
2022-08-02T22:28:51.824Z,2.80
2022-08-02T22:31:41.563Z,2.50
2022-08-02T22:34:26.957Z,3.27
2022-08-02T22:36:59.007Z,2.80
2022-08-02T22:39:28.513Z,3.00
2022-08-02T22:42:05.638Z,2.90
2022-08-02T22:44:35.169Z,2.80
2022-08-02T22:49:54.417Z,2.80
2022-08-02T22:52:25.201Z,3.30
2022-08-02T22:54:53.854Z,3.17
2022-08-02T22:57:30.047Z,3.43
2022-08-02T22:58:50.792Z,2.03
2022-08-02T22:58:51.222Z,2.15
2022-08-02T22:58:52.550Z,2.72
2022-08-02T22:59:05.696Z,2.70
2022-08-02T22:59:11.854Z,2.90
2022-08-02T22:59:59.010Z,3.10
2022-08-02T23:02:26.830Z,3.00
2022-08-02T23:04:54.625Z,2.97
2022-08-02T23:07:22.503Z,3.27
2022-08-02T23:09:51.642Z,2.70
2022-08-02T23:12:20.221Z,2.73
2022-08-02T23:14:48.512Z,3.00
2022-08-02T23:17:33.294Z,3.30
2022-08-02T23:20:01.173Z,3.13
2022-08-02T23:22:32.179Z,2.80
2022-08-02T23:25:02.514Z,2.90
2022-08-02T23:27:30.885Z,3.10
2022-08-02T23:29:59.164Z,3.27
2022-08-02T23:32:27.640Z,2.97
2022-08-02T23:34:56.155Z,3.13
2022-08-02T23:37:24.531Z,3.57
2022-08-02T23:39:52.470Z,2.90
2022-08-02T23:42:23.193Z,2.57
2022-08-02T23:44:51.017Z,3.17
2022-08-02T23:47:18.888Z,3.10
2022-08-02T23:49:46.875Z,2.80
2022-08-02T23:52:14.886Z,3.60
2022-08-02T23:54:42.888Z,3.07
2022-08-02T23:57:21.074Z,2.80
2022-08-02T23:59:51.488Z,3.17
